Time;durP1;ratioP1;P1;durP2;ratioP2;P2;SDS_P1;SDS_P2;PMS_P1;PMS_P2;Temp;Humidity;BMP_temperature;BMP_pressure;BME280_temperature;BME280_humidity;BME280_pressure;Samples;Min_cycle;Max_cycle;Signal;HPM_P1;HPM_P2
2021/07/09 00:02:42;;;;;;;14.68;8.23;;;742.50;2124.80;;;;;;5084305;28;20021;-77
2021/07/09 00:05:08;;;;;;;10.88;7.13;;;742.50;2124.80;;;;;;5064126;28;20016;-79
2021/07/09 00:07:34;;;;;;;11.73;7.80;;;742.50;2124.80;;;;;;5060956;28;20063;-77
2021/07/09 00:10:00;;;;;;;20.38;8.15;;;742.50;2124.80;;;;;;5081253;28;20063;-77
2021/07/09 00:12:25;;;;;;;12.90;7.70;;;742.40;2124.80;;;;;;5080494;28;20117;-77
2021/07/09 00:14:51;;;;;;;12.85;8.35;;;717.70;2099.20;;;;;;5066453;28;20135;-77
2021/07/09 00:17:17;;;;;;;11.25;7.35;;;717.70;2099.20;;;;;;5064721;28;20477;-77
2021/07/09 00:19:43;;;;;;;19.10;7.18;;;717.60;2124.80;;;;;;5065278;28;20024;-76
2021/07/09 00:22:09;;;;;;;18.45;7.97;;;717.60;2124.80;;;;;;5061042;28;20022;-76
2021/07/09 00:24:35;;;;;;;13.70;7.97;;;717.50;2124.80;;;;;;5082518;28;20016;-76
2021/07/09 00:27:03;;;;;;;14.27;7.95;;;717.60;2124.80;;;;;;5085081;28;20036;-76
2021/07/09 00:29:29;;;;;;;8.80;6.53;;;717.50;2124.80;;;;;;5062831;28;20102;-75
2021/07/09 00:31:55;;;;;;;9.30;6.85;;;717.40;2124.80;;;;;;5060499;28;20031;-75
2021/07/09 00:34:21;;;;;;;10.45;7.20;;;717.40;2150.40;;;;;;5069435;28;20032;-75
2021/07/09 00:36:47;;;;;;;11.35;5.85;;;717.40;2124.80;;;;;;5065881;28;20033;-75
2021/07/09 00:39:13;;;;;;;21.00;7.40;;;717.40;2150.40;;;;;;5073154;28;20029;-75
2021/07/09 00:41:39;;;;;;;11.23;6.68;;;717.40;2150.40;;;;;;5058446;28;20032;-75
2021/07/09 00:44:06;;;;;;;14.10;7.20;;;717.30;2150.40;;;;;;5066486;28;20799;-76
2021/07/09 00:46:37;;;;;;;11.55;6.60;;;717.30;2150.40;;;;;;5069256;28;20082;-74
2021/07/09 00:49:05;;;;;;;9.15;6.47;;;717.30;2150.40;;;;;;5062754;28;20032;-75
2021/07/09 00:51:31;;;;;;;14.43;6.47;;;717.20;2150.40;;;;;;5068178;28;20119;-75
2021/07/09 00:53:57;;;;;;;8.98;5.90;;;717.20;2150.40;;;;;;5069128;28;20107;-76
2021/07/09 00:56:24;;;;;;;8.27;5.80;;;717.10;2150.40;;;;;;5069887;28;20534;-76
2021/07/09 00:58:51;;;;;;;11.63;6.25;;;717.10;2124.80;;;;;;5054031;28;20080;-76
2021/07/09 01:01:17;;;;;;;11.65;6.47;;;717.10;2124.80;;;;;;5068048;28;20025;-76
2021/07/09 01:03:44;;;;;;;11.63;4.93;;;717.10;2124.80;;;;;;5065519;28;20082;-76
2021/07/09 01:06:11;;;;;;;9.32;5.30;;;717.10;2124.80;;;;;;5058290;28;20036;-76
2021/07/09 01:08:37;;;;;;;8.75;5.15;;;716.90;2124.80;;;;;;5073806;28;20028;-75
2021/07/09 01:11:03;;;;;;;9.60;5.20;;;717.00;2124.80;;;;;;5057380;28;20484;-76
2021/07/09 01:13:29;;;;;;;10.93;4.93;;;716.90;2124.80;;;;;;5061917;28;20025;-76
2021/07/09 01:15:55;;;;;;;11.77;4.90;;;717.00;2124.80;;;;;;5068680;28;20028;-76
2021/07/09 01:18:21;;;;;;;12.10;5.40;;;716.90;2124.80;;;;;;5054367;28;20032;-76
2021/07/09 01:20:47;;;;;;;8.32;5.20;;;716.90;2124.80;;;;;;5066995;28;20035;-76
2021/07/09 01:23:15;;;;;;;7.55;4.78;;;716.90;2124.80;;;;;;5061455;28;20094;-76
2021/07/09 01:25:40;;;;;;;10.05;4.65;;;716.90;2099.20;;;;;;5071105;28;20060;-75
2021/07/09 01:28:08;;;;;;;13.18;6.07;;;716.90;2099.20;;;;;;5072151;28;20082;-76
2021/07/09 01:30:35;;;;;;;6.13;4.20;;;716.90;2099.20;;;;;;5078175;28;20060;-75
2021/07/09 01:33:02;;;;;;;9.68;4.38;;;716.90;2099.20;;;;;;5055353;28;20024;-75
2021/07/09 01:35:28;;;;;;;6.35;4.70;;;716.80;2124.80;;;;;;5080260;28;20028;-75
2021/07/09 01:37:59;;;;;;;9.50;5.47;;;716.90;2099.20;;;;;;5080083;28;20039;-75
2021/07/09 01:40:25;;;;;;;13.90;6.10;;;716.80;2124.80;;;;;;5055356;28;20029;-75
2021/07/09 01:42:51;;;;;;;6.22;4.75;;;716.80;2124.80;;;;;;5069007;28;20081;-75
2021/07/09 01:45:17;;;;;;;6.38;4.68;;;716.80;2124.80;;;;;;5072604;28;20044;-75
2021/07/09 01:47:43;;;;;;;6.10;3.90;;;716.80;2124.80;;;;;;5062087;28;20487;-75
2021/07/09 01:50:09;;;;;;;9.95;4.15;;;716.80;2124.80;;;;;;5088011;28;20032;-75
2021/07/09 01:52:35;;;;;;;6.53;4.35;;;692.10;2099.20;;;;;;5056307;28;20040;-74
2021/07/09 01:55:04;;;;;;;5.88;4.00;;;692.00;2099.20;;;;;;5087095;28;20379;-75
2021/07/09 01:57:30;;;;;;;8.80;4.40;;;692.00;2124.80;;;;;;5092495;28;20012;-75
2021/07/09 01:59:57;;;;;;;5.38;4.20;;;692.00;2124.80;;;;;;5074844;28;20781;-75
2021/07/09 02:02:23;;;;;;;8.73;5.13;;;692.00;2124.80;;;;;;5083172;28;20099;-76
2021/07/09 02:04:56;;;;;;;9.43;4.82;;;692.00;2124.80;;;;;;5054566;28;20058;-75
2021/07/09 02:07:23;;;;;;;13.00;5.53;;;692.10;2124.80;;;;;;5060563;28;20032;-76
2021/07/09 02:09:51;;;;;;;9.18;4.43;;;692.00;2124.80;;;;;;5086339;28;20059;-75
2021/07/09 02:12:19;;;;;;;6.60;4.95;;;692.00;2124.80;;;;;;5084854;28;20033;-76
2021/07/09 02:14:45;;;;;;;5.28;4.10;;;692.00;2150.40;;;;;;5082872;28;20027;-77
2021/07/09 02:17:14;;;;;;;10.10;4.53;;;691.90;2150.40;;;;;;5069372;28;20023;-76
2021/07/09 02:19:41;;;;;;;8.88;4.72;;;691.90;2150.40;;;;;;5082519;28;20047;-76
2021/07/09 02:22:12;;;;;;;6.32;4.47;;;691.90;2150.40;;;;;;5067576;28;20431;-75
2021/07/09 02:24:40;;;;;;;5.70;3.85;;;691.80;2176.00;;;;;;5062866;28;20032;-75
2021/07/09 02:27:07;;;;;;;18.08;4.75;;;691.80;2176.00;;;;;;5074331;28;20020;-75
2021/07/09 02:29:33;;;;;;;7.50;4.45;;;691.80;2176.00;;;;;;5082544;28;20050;-75
2021/07/09 02:32:06;;;;;;;7.88;4.35;;;691.80;2176.00;;;;;;5072144;28;20024;-75
2021/07/09 02:34:33;;;;;;;9.00;5.50;;;691.80;2201.60;;;;;;5086169;28;20028;-74
2021/07/09 02:36:59;;;;;;;6.13;5.07;;;691.80;2201.60;;;;;;5074468;28;20487;-75
2021/07/09 02:39:25;;;;;;;10.88;4.72;;;691.70;2201.60;;;;;;5074195;28;20034;-75
2021/07/09 02:41:55;;;;;;;17.25;5.75;;;691.60;2201.60;;;;;;5060102;28;20024;-75
2021/07/09 02:44:22;;;;;;;6.15;4.40;;;691.70;2201.60;;;;;;5081680;28;20021;-75
2021/07/09 02:46:49;;;;;;;12.65;5.68;;;691.70;2201.60;;;;;;5068074;28;20070;-75
2021/07/09 02:49:15;;;;;;;6.07;4.82;;;691.70;2227.20;;;;;;5079285;28;20024;-75
2021/07/09 02:51:41;;;;;;;8.35;6.13;;;691.70;2227.20;;;;;;5085431;28;20031;-75
2021/07/09 02:54:07;;;;;;;7.53;4.82;;;691.60;2227.20;;;;;;5060507;28;20081;-76
2021/07/09 02:56:33;;;;;;;6.65;4.88;;;691.60;2227.20;;;;;;5079226;28;20078;-75
2021/07/09 02:58:59;;;;;;;7.65;4.47;;;691.50;2227.20;;;;;;5084216;28;20016;-76
2021/07/09 03:01:25;;;;;;;9.27;5.43;;;691.50;2227.20;;;;;;5058335;28;20023;-75
2021/07/09 03:03:52;;;;;;;6.07;4.78;;;691.40;2252.80;;;;;;5058150;28;20021;-75
2021/07/09 03:06:19;;;;;;;9.98;5.13;;;691.40;2252.80;;;;;;5077630;28;20109;-75
2021/07/09 03:08:45;;;;;;;11.50;4.97;;;691.40;2252.80;;;;;;5084926;28;20414;-75
2021/07/09 03:11:11;;;;;;;6.53;4.75;;;691.40;2252.80;;;;;;5071910;28;20032;-76
2021/07/09 03:13:36;;;;;;;10.23;4.78;;;691.40;2252.80;;;;;;5071647;28;20025;-75
2021/07/09 03:16:02;;;;;;;10.48;5.20;;;691.40;2252.80;;;;;;5071305;28;20035;-76
2021/07/09 03:18:28;;;;;;;9.52;5.13;;;691.40;2252.80;;;;;;5069514;28;20020;-76
2021/07/09 03:20:54;;;;;;;8.60;5.13;;;691.40;2252.80;;;;;;5090509;28;20429;-75
2021/07/09 03:23:20;;;;;;;8.15;5.25;;;691.40;2252.80;;;;;;5077568;28;20021;-75
2021/07/09 03:25:46;;;;;;;9.07;5.38;;;691.40;2252.80;;;;;;5084471;28;20060;-76
2021/07/09 03:28:12;;;;;;;8.80;4.97;;;691.40;2252.80;;;;;;5083141;28;20136;-75
2021/07/09 03:30:39;;;;;;;9.57;5.38;;;691.40;2252.80;;;;;;5073238;28;20388;-75
2021/07/09 03:33:05;;;;;;;17.20;5.60;;;691.30;2278.40;;;;;;5091604;28;20042;-75
2021/07/09 03:35:31;;;;;;;10.75;5.97;;;691.40;2278.40;;;;;;5066131;28;20093;-76
2021/07/09 03:37:56;;;;;;;16.00;6.18;;;691.40;2252.80;;;;;;5071406;28;20056;-76
2021/07/09 03:40:22;;;;;;;15.48;6.15;;;691.40;2252.80;;;;;;5071607;28;20035;-76
2021/07/09 03:42:49;;;;;;;11.32;5.80;;;691.50;2252.80;;;;;;5071332;28;20028;-76
2021/07/09 03:45:15;;;;;;;12.20;6.10;;;691.60;2252.80;;;;;;5080610;28;20031;-77
2021/07/09 03:47:41;;;;;;;17.13;6.40;;;691.70;2252.80;;;;;;5072241;28;20024;-76
2021/07/09 03:50:07;;;;;;;18.55;6.93;;;691.70;2227.20;;;;;;5071407;28;20063;-76
2021/07/09 03:52:33;;;;;;;16.27;6.20;;;691.70;2227.20;;;;;;5053541;28;20057;-77
2021/07/09 03:54:59;;;;;;;12.82;6.47;;;691.70;2227.20;;;;;;5071506;28;20052;-77
2021/07/09 03:57:25;;;;;;;14.40;6.03;;;691.80;2227.20;;;;;;5066420;28;20029;-81
2021/07/09 03:59:51;;;;;;;20.50;6.47;;;691.80;2227.20;;;;;;5088123;28;20090;-77
2021/07/09 04:02:16;;;;;;;13.50;6.40;;;691.80;2227.20;;;;;;5089590;28;20029;-76
2021/07/09 04:04:42;;;;;;;18.85;6.28;;;691.90;2227.20;;;;;;5068960;28;20028;-77
2021/07/09 04:07:08;;;;;;;14.65;5.93;;;691.90;2227.20;;;;;;5076840;28;20425;-77
2021/07/09 04:09:34;;;;;;;14.07;6.63;;;692.00;2227.20;;;;;;5074844;28;20040;-75
2021/07/09 04:11:59;;;;;;;18.25;8.20;;;692.00;2227.20;;;;;;5076924;28;20407;-80
2021/07/09 04:14:25;;;;;;;15.77;5.68;;;692.10;2201.60;;;;;;5071010;28;20379;-77
2021/07/09 04:16:51;;;;;;;12.52;5.22;;;716.80;2227.20;;;;;;5070305;28;20115;-79
2021/07/09 04:19:17;;;;;;;21.60;6.50;;;716.80;2227.20;;;;;;5085403;28;20155;-80
2021/07/09 04:21:43;;;;;;;14.43;6.80;;;716.90;2227.20;;;;;;5088917;28;20027;-80
2021/07/09 04:24:09;;;;;;;9.18;6.15;;;717.00;2201.60;;;;;;5062399;28;20103;-80
2021/07/09 04:26:34;;;;;;;14.35;5.93;;;717.00;2201.60;;;;;;5068712;28;20593;-80
2021/07/09 04:29:01;;;;;;;10.48;5.85;;;717.00;2201.60;;;;;;5080525;28;20044;-80
2021/07/09 04:31:27;;;;;;;13.85;6.28;;;717.20;2201.60;;;;;;5085964;28;20029;-77
2021/07/09 04:33:53;;;;;;;13.93;6.28;;;717.10;2201.60;;;;;;5085181;28;20023;-78
2021/07/09 04:36:19;;;;;;;12.75;5.50;;;717.30;2176.00;;;;;;5080050;28;20024;-77
2021/07/09 04:38:45;;;;;;;13.23;6.38;;;717.30;2176.00;;;;;;5080973;28;20032;-76
2021/07/09 04:41:11;;;;;;;12.52;7.25;;;717.30;2176.00;;;;;;5087506;28;20451;-76
2021/07/09 04:43:41;;;;;;;7.70;5.20;;;717.40;2176.00;;;;;;5075982;28;20090;-76
2021/07/09 04:46:07;;;;;;;12.18;5.75;;;717.60;2176.00;;;;;;5061237;28;20043;-76
2021/07/09 04:48:33;;;;;;;9.35;5.82;;;717.70;2150.40;;;;;;5088497;28;20032;-77
2021/07/09 04:51:01;;;;;;;13.95;5.82;;;717.70;2150.40;;;;;;5083211;28;20028;-77
2021/07/09 04:53:28;;;;;;;16.58;5.60;;;717.70;2150.40;;;;;;5087055;28;20529;-77
2021/07/09 04:55:54;;;;;;;8.80;5.78;;;742.60;2150.40;;;;;;5064256;28;20041;-76
2021/07/09 04:58:19;;;;;;;13.27;5.70;;;742.70;2150.40;;;;;;5056358;28;20097;-75
2021/07/09 05:00:45;;;;;;;25.30;6.38;;;742.60;2150.40;;;;;;5079205;28;20021;-76
2021/07/09 05:03:11;;;;;;;11.52;5.68;;;742.70;2124.80;;;;;;5061210;28;20024;-75
2021/07/09 05:05:37;;;;;;;15.05;5.82;;;742.90;2124.80;;;;;;5064562;28;20036;-75
2021/07/09 05:08:03;;;;;;;12.95;6.03;;;743.10;2124.80;;;;;;5088010;28;20125;-75
2021/07/09 05:10:29;;;;;;;9.65;5.38;;;743.10;2099.20;;;;;;5062879;28;20028;-75
2021/07/09 05:12:55;;;;;;;18.33;5.85;;;743.20;2099.20;;;;;;5059342;28;20024;-76
2021/07/09 05:15:20;;;;;;;17.48;5.93;;;768.00;2073.60;;;;;;5062073;28;20028;-76
2021/07/09 05:17:46;;;;;;;11.63;6.18;;;768.10;2073.60;;;;;;5069392;28;20417;-76
2021/07/09 05:20:12;;;;;;;10.73;6.57;;;768.20;2073.60;;;;;;5075767;28;20069;-78
2021/07/09 05:22:39;;;;;;;13.60;6.78;;;768.20;2048.00;;;;;;5079730;28;20031;-78
2021/07/09 05:25:05;;;;;;;11.93;5.88;;;768.30;2048.00;;;;;;5067198;28;20028;-78
2021/07/09 05:27:31;;;;;;;16.13;7.45;;;768.40;2048.00;;;;;;5074106;28;20020;-78
2021/07/09 05:29:58;;;;;;;10.98;6.32;;;768.50;2022.40;;;;;;5057684;28;20036;-78
2021/07/09 05:32:28;;;;;;;12.65;5.32;;;768.60;2022.40;;;;;;5055689;28;20044;-77
2021/07/09 05:34:56;;;;;;;13.40;5.88;;;768.70;2022.40;;;;;;5085134;28;20382;-76
2021/07/09 05:37:23;;;;;;;19.45;6.53;;;768.60;2022.40;;;;;;5081364;28;20074;-76
2021/07/09 05:39:51;;;;;;;17.48;7.60;;;768.40;2022.40;;;;;;5073271;28;20028;-80
2021/07/09 05:42:17;;;;;;;16.63;6.53;;;768.60;2022.40;;;;;;5062237;28;20032;-78
2021/07/09 05:44:44;;;;;;;29.05;8.27;;;768.70;1996.80;;;;;;5061949;28;20102;-78
2021/07/09 05:47:11;;;;;;;22.17;6.57;;;768.50;2022.40;;;;;;5064569;28;20044;-78
2021/07/09 05:49:37;;;;;;;19.52;7.70;;;768.20;2048.00;;;;;;5088789;28;20371;-77
2021/07/09 05:52:03;;;;;;;11.85;6.03;;;768.20;2048.00;;;;;;5073984;28;20025;-74
2021/07/09 05:54:29;;;;;;;16.30;7.20;;;768.20;2048.00;;;;;;5068383;28;20063;-74
2021/07/09 05:56:55;;;;;;;25.02;7.32;;;768.40;2048.00;;;;;;5068963;28;20844;-76
2021/07/09 05:59:21;;;;;;;20.70;6.43;;;768.30;2022.40;;;;;;5082357;28;20103;-75
2021/07/09 06:01:46;;;;;;;19.48;6.72;;;768.40;2048.00;;;;;;5063421;28;20024;-76
2021/07/09 06:04:14;;;;;;;19.33;6.38;;;768.50;2022.40;;;;;;5078868;28;20495;-80
2021/07/09 06:06:40;;;;;;;12.82;5.95;;;768.50;2022.40;;;;;;5083759;28;20035;-77
2021/07/09 06:09:06;;;;;;;17.58;6.18;;;768.70;1996.80;;;;;;5061569;28;20787;-76
2021/07/09 06:11:32;;;;;;;11.63;6.32;;;768.70;1996.80;;;;;;5087080;28;20024;-77
2021/07/09 06:13:58;;;;;;;23.35;6.88;;;793.60;1996.80;;;;;;5079655;28;20031;-76
2021/07/09 06:16:23;;;;;;;18.38;6.85;;;793.60;1996.80;;;;;;5073556;28;20024;-77
2021/07/09 06:18:50;;;;;;;13.38;6.53;;;793.70;1971.20;;;;;;5071220;28;20111;-76
2021/07/09 06:21:16;;;;;;;20.65;5.75;;;793.80;1971.20;;;;;;5078812;28;20017;-76
2021/07/09 06:23:42;;;;;;;10.35;5.22;;;794.10;1945.60;;;;;;5077478;28;20012;-76
2021/07/09 06:26:08;;;;;;;12.25;5.65;;;794.30;1945.60;;;;;;5056115;28;20036;-76
2021/07/09 06:28:35;;;;;;;9.00;5.65;;;794.50;1920.00;;;;;;5077123;28;20028;-77
2021/07/09 06:31:01;;;;;;;11.50;5.95;;;819.20;1894.40;;;;;;5067538;28;20513;-76
2021/07/09 06:33:26;;;;;;;16.85;6.72;;;819.30;1894.40;;;;;;5085932;28;20040;-76
2021/07/09 06:35:52;;;;;;;9.25;5.32;;;819.30;1894.40;;;;;;5085912;28;20093;-76
2021/07/09 06:38:18;;;;;;;15.80;5.50;;;819.50;1894.40;;;;;;5063562;28;20060;-76
2021/07/09 06:40:44;;;;;;;12.75;6.40;;;819.70;1868.80;;;;;;5086399;28;20024;-75
2021/07/09 06:43:11;;;;;;;11.90;6.25;;;819.80;1868.80;;;;;;5082574;28;20025;-75
2021/07/09 06:45:38;;;;;;;13.88;5.53;;;820.10;1843.20;;;;;;5061671;28;20038;-76
2021/07/09 06:48:04;;;;;;;12.07;5.38;;;819.90;1843.20;;;;;;5066773;28;20020;-76
2021/07/09 06:50:30;;;;;;;8.85;5.30;;;844.80;1868.80;;;;;;5068968;28;20032;-77
2021/07/09 06:52:56;;;;;;;12.70;6.82;;;820.10;1843.20;;;;;;5058240;28;20467;-75
2021/07/09 06:55:22;;;;;;;9.30;5.05;;;844.80;1843.20;;;;;;5083970;28;20024;-76
2021/07/09 06:57:48;;;;;;;18.30;5.18;;;845.30;1817.60;;;;;;5079301;28;20055;-78
2021/07/09 07:00:17;;;;;;;11.95;5.75;;;845.20;1817.60;;;;;;5068869;28;20026;-76
2021/07/09 07:02:47;;;;;;;11.55;5.65;;;845.00;1817.60;;;;;;5090965;28;20024;-76
2021/07/09 07:05:14;;;;;;;18.17;6.80;;;845.00;1843.20;;;;;;5094602;28;20130;-78
2021/07/09 07:07:41;;;;;;;12.73;5.70;;;845.10;1817.60;;;;;;5082951;28;20055;-76
2021/07/09 07:10:07;;;;;;;13.20;5.60;;;845.30;1792.00;;;;;;5062099;28;20028;-77
2021/07/09 07:12:34;;;;;;;19.00;7.07;;;845.40;1792.00;;;;;;5074624;28;20025;-76
2021/07/09 07:15:00;;;;;;;17.67;6.15;;;845.50;1792.00;;;;;;5071449;28;20017;-76
2021/07/09 07:17:25;;;;;;;11.52;5.60;;;870.60;1740.80;;;;;;5092143;28;20511;-77
2021/07/09 07:19:51;;;;;;;14.90;5.43;;;871.10;1740.80;;;;;;5076111;28;20475;-76
2021/07/09 07:22:17;;;;;;;13.88;7.05;;;871.10;1689.60;;;;;;5083190;28;20467;-76
2021/07/09 07:24:45;;;;;;;13.68;5.88;;;871.10;1689.60;;;;;;5070451;28;20058;-76
2021/07/09 07:27:11;;;;;;;16.70;6.97;;;871.10;1689.60;;;;;;5057637;28;20064;-75
2021/07/09 07:29:37;;;;;;;11.50;5.35;;;871.30;1689.60;;;;;;5075590;28;20137;-77
2021/07/09 07:32:03;;;;;;;19.95;6.65;;;896.10;1689.60;;;;;;5071396;28;20028;-77
2021/07/09 07:34:28;;;;;;;14.95;5.57;;;871.30;1664.00;;;;;;5069434;28;20028;-76
2021/07/09 07:36:54;;;;;;;15.73;5.57;;;896.00;1664.00;;;;;;5077291;28;20028;-77
2021/07/09 07:39:22;;;;;;;14.95;5.40;;;871.10;1689.60;;;;;;5066274;28;20034;-76
2021/07/09 07:41:48;;;;;;;17.05;6.28;;;871.10;1689.60;;;;;;5075391;28;20020;-76
2021/07/09 07:44:14;;;;;;;12.88;5.30;;;871.10;1664.00;;;;;;5057569;28;20360;-77
2021/07/09 07:46:40;;;;;;;16.00;6.45;;;871.30;1638.40;;;;;;5066319;28;20125;-76
2021/07/09 07:49:05;;;;;;;13.45;5.43;;;896.10;1638.40;;;;;;5083194;28;20046;-77
2021/07/09 07:51:31;;;;;;;17.15;6.43;;;896.00;1664.00;;;;;;5068282;28;20394;-76
2021/07/09 07:53:57;;;;;;;20.35;6.00;;;896.30;1638.40;;;;;;5082621;28;20028;-76
2021/07/09 07:56:23;;;;;;;21.85;6.05;;;896.50;1612.80;;;;;;5087320;28;20024;-77
2021/07/09 07:58:51;;;;;;;11.50;6.45;;;896.50;1612.80;;;;;;5081142;28;20020;-76
2021/07/09 08:01:18;;;;;;;15.80;6.32;;;921.60;1612.80;;;;;;5077312;28;20256;-76
2021/07/09 08:03:44;;;;;;;19.27;6.45;;;921.80;1587.20;;;;;;5060504;28;20111;-77
2021/07/09 08:06:09;;;;;;;14.55;6.63;;;896.90;1536.00;;;;;;5056685;28;20432;-77
2021/07/09 08:08:38;;;;;;;30.40;6.95;;;921.60;1561.60;;;;;;5076396;28;20028;-76
2021/07/09 08:11:05;;;;;;;17.55;7.38;;;896.50;1561.60;;;;;;5067197;28;20035;-76
2021/07/09 08:13:31;;;;;;;22.40;7.28;;;896.40;1561.60;;;;;;5076771;28;20059;-75
2021/07/09 08:15:57;;;;;;;19.92;6.50;;;896.50;1561.60;;;;;;5081180;28;20025;-76
2021/07/09 08:18:23;;;;;;;20.83;6.60;;;896.60;1536.00;;;;;;5089773;28;20031;-75
2021/07/09 08:20:48;;;;;;;30.75;6.60;;;921.60;1561.60;;;;;;5068529;28;20051;-74
2021/07/09 08:23:14;;;;;;;19.88;6.40;;;921.60;1536.00;;;;;;5074513;28;20471;-74
2021/07/09 08:25:40;;;;;;;26.65;6.03;;;921.70;1536.00;;;;;;5067833;28;20505;-74
2021/07/09 08:28:06;;;;;;;25.88;7.13;;;921.70;1510.40;;;;;;5064065;28;20419;-76
2021/07/09 08:30:31;;;;;;;25.23;6.03;;;921.70;1536.00;;;;;;5066165;28;20379;-76
2021/07/09 08:32:57;;;;;;;18.67;7.05;;;896.80;1510.40;;;;;;5086731;28;20421;-78
2021/07/09 08:35:23;;;;;;;16.27;6.97;;;896.60;1484.80;;;;;;5092045;28;20020;-76
2021/07/09 08:37:50;;;;;;;25.92;7.30;;;921.80;1510.40;;;;;;5081242;28;20024;-77
2021/07/09 08:40:25;;;;;;;18.48;6.47;;;922.00;1459.20;;;;;;5057073;28;20020;-76
2021/07/09 08:42:50;;;;;;;16.85;6.40;;;922.40;1433.60;;;;;;5083693;28;20364;-76
2021/07/09 08:45:16;;;;;;;25.92;6.50;;;947.20;1408.00;;;;;;5063841;28;20077;-76
2021/07/09 08:47:43;;;;;;;15.50;5.85;;;947.30;1408.00;;;;;;5075512;28;20390;-76
2021/07/09 08:50:11;;;;;;;21.55;6.20;;;922.40;1408.00;;;;;;5081471;28;20507;-76
2021/07/09 08:52:39;;;;;;;19.15;6.00;;;947.20;1408.00;;;;;;5075264;28;20845;-77
2021/07/09 08:55:05;;;;;;;19.85;7.05;;;947.60;1382.40;;;;;;5078424;28;20021;-76
2021/07/09 08:57:31;;;;;;;23.30;6.68;;;947.50;1382.40;;;;;;5066971;28;20029;-78
2021/07/09 08:59:57;;;;;;;17.83;6.60;;;947.80;1356.80;;;;;;5063508;28;20033;-77
2021/07/09 09:02:26;;;;;;;19.67;8.50;;;947.60;1382.40;;;;;;5069019;28;20024;-76
2021/07/09 09:04:53;;;;;;;32.13;6.80;;;947.90;1356.80;;;;;;5080205;28;20024;-76
2021/07/09 09:07:19;;;;;;;13.98;5.97;;;947.60;1382.40;;;;;;5063465;28;20028;-76
2021/07/09 09:09:45;;;;;;;15.00;7.15;;;947.50;1382.40;;;;;;5059859;28;20039;-75
2021/07/09 09:12:14;;;;;;;17.13;6.38;;;947.60;1382.40;;;;;;5058930;28;20120;-75
2021/07/09 09:14:46;;;;;;;21.65;7.13;;;947.50;1382.40;;;;;;5065257;28;20123;-76
2021/07/09 09:17:32;;;;;;;13.60;5.15;;;947.30;1382.40;;;;;;5060128;28;20032;-77
2021/07/09 09:20:17;;;;;;;17.33;5.75;;;947.40;1382.40;;;;;;5060677;28;20119;-79
2021/07/09 09:22:49;;;;;;;16.23;4.95;;;947.20;1408.00;;;;;;5074846;28;20025;-78
2021/07/09 09:25:20;;;;;;;11.82;5.45;;;922.30;1408.00;;;;;;5082614;28;20080;-77
2021/07/09 09:28:07;;;;;;;16.90;6.80;;;922.50;1408.00;;;;;;5076766;28;20020;-78
2021/07/09 09:30:36;;;;;;;12.60;5.13;;;922.40;1408.00;;;;;;5023078;28;1278867;-77
2021/07/09 09:33:04;;;;;;;19.65;5.55;;;947.20;1382.40;;;;;;5080538;28;20828;-77
2021/07/09 09:35:48;;;;;;;18.80;5.45;;;948.00;1331.20;;;;;;5068871;28;20552;-78
2021/07/09 09:38:18;;;;;;;7.82;5.03;;;973.50;1305.60;;;;;;5081142;28;20111;-78
2021/07/09 09:40:46;;;;;;;16.75;5.97;;;998.70;1305.60;;;;;;5071949;28;20395;-78
2021/07/09 09:43:18;;;;;;;13.85;7.13;;;998.60;1305.60;;;;;;5068805;28;20407;-79
2021/07/09 09:45:44;;;;;;;17.58;7.00;;;973.50;1305.60;;;;;;5087569;28;20042;-79
2021/07/09 09:48:16;;;;;;;11.82;5.28;;;972.80;1331.20;;;;;;5088129;28;20052;-79
2021/07/09 09:50:50;;;;;;;10.68;6.15;;;947.90;1305.60;;;;;;5080089;28;20059;-78
2021/07/09 09:53:41;;;;;;;14.82;6.28;;;948.00;1331.20;;;;;;5072344;28;20475;-77
2021/07/09 09:56:10;;;;;;;8.68;4.82;;;947.90;1331.20;;;;;;5074043;28;20032;-78
2021/07/09 09:58:39;;;;;;;13.93;5.15;;;947.60;1356.80;;;;;;5085130;28;20089;-78
2021/07/09 10:01:04;;;;;;;11.63;4.88;;;947.20;1356.80;;;;;;5083121;28;20028;-78
2021/07/09 10:03:30;;;;;;;16.25;5.93;;;922.50;1356.80;;;;;;5074701;28;20078;-78
2021/07/09 10:05:59;;;;;;;9.77;5.25;;;947.20;1356.80;;;;;;5078512;28;20020;-78
2021/07/09 10:08:25;;;;;;;8.90;5.10;;;948.10;1331.20;;;;;;5089595;28;20043;-78
2021/07/09 10:10:51;;;;;;;9.80;5.85;;;973.70;1305.60;;;;;;5103000;28;20024;-78
2021/07/09 10:13:22;;;;;;;16.35;5.00;;;998.80;1280.00;;;;;;5095702;28;20094;-77
2021/07/09 10:16:01;;;;;;;11.95;4.07;;;1024.10;1254.40;;;;;;5086390;28;20024;-78
2021/07/09 10:18:33;;;;;;;12.25;5.47;;;1024.60;1203.20;;;;;;5067743;28;20052;-76
2021/07/09 10:21:02;;;;;;;7.32;3.83;;;1024.60;1203.20;;;;;;5083794;28;20032;-75
2021/07/09 10:23:34;;;;;;;10.73;4.55;;;1024.90;1203.20;;;;;;5088206;28;20483;-76
2021/07/09 10:26:03;;;;;;;9.07;4.55;;;1024.40;1203.20;;;;;;5072609;28;20820;-76
2021/07/09 10:28:29;;;;;;;13.52;4.53;;;1024.00;1228.80;;;;;;5089938;28;20520;-76
2021/07/09 10:30:55;;;;;;;8.80;4.40;;;1024.00;1254.40;;;;;;5072563;28;20130;-77
2021/07/09 10:33:34;;;;;;;10.48;5.15;;;1024.10;1228.80;;;;;;5067896;28;20090;-76
2021/07/09 10:36:08;;;;;;;8.07;5.45;;;1024.00;1254.40;;;;;;5071599;28;20028;-76
2021/07/09 10:38:41;;;;;;;8.00;4.72;;;999.10;1254.40;;;;;;5085985;28;20501;-76
2021/07/09 10:41:20;;;;;;;7.70;4.97;;;999.00;1254.40;;;;;;5066043;28;20130;-76
2021/07/09 10:44:15;;;;;;;6.80;4.60;;;999.10;1254.40;;;;;;5064312;28;20775;-76
2021/07/09 10:46:42;;;;;;;7.25;4.22;;;999.10;1254.40;;;;;;4996471;28;20034;-76
2021/07/09 10:49:08;;;;;;;8.90;4.75;;;999.10;1254.40;;;;;;5013230;28;20041;-76
2021/07/09 10:51:51;;;;;;;7.30;5.25;;;1024.10;1228.80;;;;;;4993365;28;20117;-77
2021/07/09 10:54:30;;;;;;;7.32;4.88;;;1024.10;1228.80;;;;;;4995534;28;20056;-77
2021/07/09 10:57:21;;;;;;;7.82;5.10;;;999.10;1228.80;;;;;;5017772;28;20045;-76
2021/07/09 11:00:29;;;;;;;11.25;4.82;;;998.70;1254.40;;;;;;5011331;28;20088;-78
2021/07/09 11:03:04;;;;;;;9.65;6.78;;;998.40;1280.00;;;;;;5005695;28;20477;-79
2021/07/09 11:05:42;;;;;;;10.90;5.68;;;998.90;1280.00;;;;;;5013834;28;20034;-77
2021/07/09 11:08:29;;;;;;;6.55;5.40;;;1024.60;1203.20;;;;;;5023627;28;20060;-78
2021/07/09 11:11:12;;;;;;;10.13;5.68;;;1049.80;1203.20;;;;;;5021562;28;20061;-77
2021/07/09 11:13:44;;;;;;;10.88;5.50;;;1049.60;1203.20;;;;;;5012574;28;20081;-78
2021/07/09 11:16:35;;;;;;;8.05;5.93;;;1024.80;1203.20;;;;;;4994934;28;20124;-78
2021/07/09 11:19:10;;;;;;;5.97;5.38;;;1024.90;1177.60;;;;;;5016258;28;20028;-78
2021/07/09 11:21:36;;;;;;;8.40;5.28;;;1024.60;1203.20;;;;;;4992062;28;20028;-77
2021/07/09 11:24:01;;;;;;;9.77;5.22;;;1024.30;1203.20;;;;;;5074379;28;20036;-77
2021/07/09 11:26:48;;;;;;;6.78;5.60;;;1024.70;1177.60;;;;;;5079875;28;20388;-77
2021/07/09 11:29:25;;;;;;;10.45;5.88;;;1050.10;1177.60;;;;;;5087060;28;20044;-78
2021/07/09 11:32:01;;;;;;;8.18;5.13;;;1050.10;1177.60;;;;;;5069855;28;20029;-78
2021/07/09 11:34:30;;;;;;;8.25;5.32;;;1075.50;1152.00;;;;;;5079690;28;20416;-77
2021/07/09 11:37:04;;;;;;;10.68;5.70;;;1075.90;1126.40;;;;;;5080339;28;20029;-78
2021/07/09 11:39:47;;;;;;;8.50;4.53;;;1075.70;1126.40;;;;;;5061138;28;20033;-78
2021/07/09 11:42:14;;;;;;;8.20;5.40;;;1049.80;1177.60;;;;;;5074292;28;20048;-77
2021/07/09 11:45:04;;;;;;;15.77;5.82;;;1024.40;1203.20;;;;;;5083387;28;20020;-77
2021/07/09 11:47:38;;;;;;;6.97;5.20;;;1024.90;1177.60;;;;;;5073398;28;20078;-76
2021/07/09 11:50:16;;;;;;;6.85;5.10;;;1050.10;1177.60;;;;;;5067803;28;20044;-77
2021/07/09 11:52:52;;;;;;;8.23;4.70;;;1050.30;1177.60;;;;;;5063959;28;20056;-77
2021/07/09 11:55:31;;;;;;;9.68;5.30;;;1050.30;1177.60;;;;;;5065409;28;20114;-78
2021/07/09 11:58:28;;;;;;;8.40;5.38;;;1050.10;1177.60;;;;;;5067777;28;20097;-77
2021/07/09 12:00:54;;;;;;;7.15;5.75;;;1050.30;1177.60;;;;;;5082969;28;20062;-77
2021/07/09 12:03:23;;;;;;;6.15;4.90;;;1075.20;1152.00;;;;;;5070950;28;20052;-78
2021/07/09 12:05:49;;;;;;;10.00;7.40;;;1075.60;1126.40;;;;;;5064682;28;20129;-76
2021/07/09 12:08:15;;;;;;;10.82;5.57;;;1075.70;1126.40;;;;;;5066670;28;20116;-77
2021/07/09 12:10:46;;;;;;;8.85;5.50;;;1076.00;1126.40;;;;;;5058348;28;20028;-77
2021/07/09 12:13:12;;;;;;;10.40;5.38;;;1075.40;1126.40;;;;;;5062454;28;20551;-77
2021/07/09 12:15:39;;;;;;;8.85;6.03;;;1050.30;1152.00;;;;;;5080880;28;20025;-76
2021/07/09 12:18:17;;;;;;;9.57;5.95;;;1049.70;1177.60;;;;;;5068313;28;20779;-77